Impacts METAR Board
IDs:

KPEZ - Pleasanton Muni, TX, US

Updated at: 0600 UTC 19 Aug 2019
Potential Impact None Slight Moderate High
Time 18/18Z 18/19Z 18/20Z 18/21Z 18/22Z 18/23Z 19/00Z 19/01Z 19/02Z 19/03Z 19/04Z 19/05Z 19/06Z
Temp95 98 100 101 102 102 97 93 89 85 83 82 81
Dewpt70 70 69 68 66 64 71 72 72 71 72 71 73
Altim29.89 29.87 29.84 29.82 29.80 29.79 29.79 29.82 29.84 29.88 29.91 29.93 29.93
VIS10 10 10 10 10 10 10 10 10 10 10 10 10
CIG46 -- -- -- -- -- -- -- -- -- -- -- --
CoverBKNSCTSCTSCTSCTCLRSCTCLRCLRCLRCLRCLRCLR
FltCatVFRVFRVFRVFRVFRVFRVFRVFRVFRVFRVFRVFRVFR
WX--------------------------
WDir200140140150150200130140130130140130150
WSpd9 9 6 10 6 3 14 14 14 12 13 10 7
WGst15 14 16 14 -- -- 21 21 22 17 18 15 14
Raw hourly METARs
KPEZ 181750Z AUTO 20009G15KT 10SM BKN046 35/21 A2989 RMK AO2 T03480210 10349 20260
KPEZ 181855Z AUTO 14009G14KT 10SM SCT050 37/21 A2987 RMK AO2 T03650209
KPEZ 181955Z AUTO 14006G16KT 10SM SCT065 38/21 A2984 RMK AO2 T03750207
KPEZ 182055Z AUTO 15010G14KT 10SM SCT065 38/20 A2982 RMK AO2 T03840199
KPEZ 182155Z AUTO 15006KT 10SM SCT075 39/19 A2980 RMK AO2 T03910188
KPEZ 182255Z AUTO 20003KT 10SM CLR 39/18 A2979 RMK AO2 T03870180
KPEZ 182355Z AUTO 13014G21KT 10SM SCT085 36/22 A2979 RMK AO2 T03620216 10394 20349
KPEZ 190055Z AUTO 14014G21KT 10SM CLR 34/22 A2982 RMK AO2 T03380222
KPEZ 190155Z AUTO 13014G22KT 10SM CLR 32/22 A2984 RMK AO2 T03170220
KPEZ 190300Z AUTO 13012G17KT 10SM CLR 30/22 A2988 RMK AO2 T02960215
KPEZ 190355Z AUTO 14013G18KT 10SM CLR 29/22 A2991 RMK AO2 T02860220
KPEZ 190450Z AUTO 13010G15KT 10SM CLR 28/22 A2993 RMK AO2 T02800218
KPEZ 190555Z AUTO 15007G14KT 10SM CLR 27/23 A2993 RMK AO2 T02710229 10360 20271 403940255



Page loaded:  06:10 UTC  |   11:10 PM Pacific  |   12:10 AM Mountain  |   01:10 AM Central  |   02:10 AM Eastern

 

ADVISORIES

FORECASTS

FORECASTS

OBSERVATIONS

USER TOOLS

ABOUT US